sensor_id;sensor_type;location;lat;lon;timestamp;pressure;altitude;pressure_sealevel;temperature;humidity
72428;BME280;60419;48.880;18.036;2022-12-29T00:02:31;99406.22;;;2.72;62.12
72428;BME280;60419;48.880;18.036;2022-12-29T00:05:16;99407.28;;;3.10;60.82
72428;BME280;60419;48.880;18.036;2022-12-29T00:08:02;99408.16;;;3.16;60.14
72428;BME280;60419;48.880;18.036;2022-12-29T00:10:47;99399.41;;;3.21;60.54
72428;BME280;60419;48.880;18.036;2022-12-29T00:13:32;99385.38;;;3.08;60.28
72428;BME280;60419;48.880;18.036;2022-12-29T00:16:37;99400.81;;;3.06;60.89
72428;BME280;60419;48.880;18.036;2022-12-29T00:19:23;99391.44;;;3.04;60.59
72428;BME280;60419;48.880;18.036;2022-12-29T00:22:28;99402.84;;;3.38;59.74
72428;BME280;60419;48.880;18.036;2022-12-29T00:25:31;99391.56;;;3.14;60.10
72428;BME280;60419;48.880;18.036;2022-12-29T00:28:35;99405.84;;;3.47;59.66
72428;BME280;60419;48.880;18.036;2022-12-29T00:31:39;99396.66;;;3.15;60.17
72428;BME280;60419;48.880;18.036;2022-12-29T00:34:43;99404.75;;;3.21;60.62
72428;BME280;60419;48.880;18.036;2022-12-29T00:37:47;99404.63;;;3.10;61.07
72428;BME280;60419;48.880;18.036;2022-12-29T00:40:51;99389.94;;;2.91;60.88
72428;BME280;60419;48.880;18.036;2022-12-29T00:43:55;99394.66;;;3.06;60.61
72428;BME280;60419;48.880;18.036;2022-12-29T00:46:49;99396.78;;;2.65;62.51
72428;BME280;60419;48.880;18.036;2022-12-29T00:49:35;99393.44;;;2.91;61.50
72428;BME280;60419;48.880;18.036;2022-12-29T00:52:20;99392.13;;;2.94;61.35
72428;BME280;60419;48.880;18.036;2022-12-29T00:55:06;99394.78;;;2.55;62.45
72428;BME280;60419;48.880;18.036;2022-12-29T00:57:51;99406.59;;;1.80;64.61
72428;BME280;60419;48.880;18.036;2022-12-29T01:00:36;99419.97;;;1.16;66.55
72428;BME280;60419;48.880;18.036;2022-12-29T01:03:22;99420.50;;;1.01;67.32
72428;BME280;60419;48.880;18.036;2022-12-29T01:06:09;99418.38;;;1.15;66.69
72428;BME280;60419;48.880;18.036;2022-12-29T01:08:55;99422.19;;;1.07;66.37
72428;BME280;60419;48.880;18.036;2022-12-29T01:11:59;99433.25;;;1.39;65.84
72428;BME280;60419;48.880;18.036;2022-12-29T01:14:44;99429.28;;;1.54;65.10
72428;BME280;60419;48.880;18.036;2022-12-29T01:17:29;99421.69;;;1.74;64.39
72428;BME280;60419;48.880;18.036;2022-12-29T01:20:15;99431.44;;;1.97;63.35
72428;BME280;60419;48.880;18.036;2022-12-29T01:23:00;99440.31;;;1.34;65.72
72428;BME280;60419;48.880;18.036;2022-12-29T01:25:46;99443.97;;;0.81;67.56
72428;BME280;60419;48.880;18.036;2022-12-29T01:28:32;99422.91;;;1.03;66.94
72428;BME280;60419;48.880;18.036;2022-12-29T01:31:17;99395.38;;;1.49;65.00
72428;BME280;60419;48.880;18.036;2022-12-29T01:34:03;99421.75;;;2.08;63.83
72428;BME280;60419;48.880;18.036;2022-12-29T01:36:48;99425.72;;;1.36;65.62
72428;BME280;60419;48.880;18.036;2022-12-29T01:39:33;99408.78;;;1.02;67.26
72428;BME280;60419;48.880;18.036;2022-12-29T01:42:23;99419.59;;;1.36;66.34
72428;BME280;60419;48.880;18.036;2022-12-29T01:45:11;99377.50;;;1.33;65.41
72428;BME280;60419;48.880;18.036;2022-12-29T01:47:59;99415.78;;;1.72;64.93
72428;BME280;60419;48.880;18.036;2022-12-29T01:50:50;99414.00;;;1.78;64.46
72428;BME280;60419;48.880;18.036;2022-12-29T01:53:37;99414.13;;;1.02;66.52
72428;BME280;60419;48.880;18.036;2022-12-29T01:56:22;99427.50;;;1.71;64.98
72428;BME280;60419;48.880;18.036;2022-12-29T01:59:14;99427.66;;;1.81;64.72
72428;BME280;60419;48.880;18.036;2022-12-29T02:02:01;99428.81;;;1.85;64.43
72428;BME280;60419;48.880;18.036;2022-12-29T02:04:46;99394.66;;;1.82;64.30
72428;BME280;60419;48.880;18.036;2022-12-29T02:07:33;99419.72;;;1.98;63.29
72428;BME280;60419;48.880;18.036;2022-12-29T02:10:24;99416.97;;;2.10;63.72
72428;BME280;60419;48.880;18.036;2022-12-29T02:13:10;99417.66;;;2.34;63.36
72428;BME280;60419;48.880;18.036;2022-12-29T02:16:24;99410.28;;;2.58;62.24
72428;BME280;60419;48.880;18.036;2022-12-29T02:25:59;99420.00;;;1.56;65.76
72428;BME280;60419;48.880;18.036;2022-12-29T02:35:36;99407.03;;;1.08;67.63
72428;BME280;60419;48.880;18.036;2022-12-29T02:41:31;99395.97;;;0.99;68.09
72428;BME280;60419;48.880;18.036;2022-12-29T02:44:41;99394.66;;;1.13;67.10
72428;BME280;60419;48.880;18.036;2022-12-29T02:50:26;99395.84;;;1.46;66.91
72428;BME280;60419;48.880;18.036;2022-12-29T02:53:16;99391.84;;;1.60;66.55
72428;BME280;60419;48.880;18.036;2022-12-29T02:56:22;99389.66;;;1.86;65.88
72428;BME280;60419;48.880;18.036;2022-12-29T02:59:08;99367.56;;;2.02;64.86
72428;BME280;60419;48.880;18.036;2022-12-29T03:08:04;99377.22;;;2.59;63.01
72428;BME280;60419;48.880;18.036;2022-12-29T03:11:11;99382.41;;;2.66;62.13
72428;BME280;60419;48.880;18.036;2022-12-29T03:14:32;99391.78;;;2.18;63.38
72428;BME280;60419;48.880;18.036;2022-12-29T03:17:58;99387.03;;;2.03;63.34
72428;BME280;60419;48.880;18.036;2022-12-29T03:20:52;99391.88;;;1.20;66.19
72428;BME280;60419;48.880;18.036;2022-12-29T03:23:41;99388.72;;;1.23;66.75
72428;BME280;60419;48.880;18.036;2022-12-29T03:26:27;99377.00;;;1.36;66.30
72428;BME280;60419;48.880;18.036;2022-12-29T03:29:15;99379.69;;;1.36;66.67
72428;BME280;60419;48.880;18.036;2022-12-29T03:32:03;99355.19;;;1.22;66.16
72428;BME280;60419;48.880;18.036;2022-12-29T03:34:50;99347.75;;;1.24;66.75
72428;BME280;60419;48.880;18.036;2022-12-29T03:37:39;99378.09;;;1.52;66.13
72428;BME280;60419;48.880;18.036;2022-12-29T03:40:27;99384.91;;;1.88;64.88
72428;BME280;60419;48.880;18.036;2022-12-29T03:43:14;99371.56;;;2.39;63.26
72428;BME280;60419;48.880;18.036;2022-12-29T03:46:00;99368.13;;;2.21;63.38
72428;BME280;60419;48.880;18.036;2022-12-29T03:48:45;99371.34;;;2.06;64.01
72428;BME280;60419;48.880;18.036;2022-12-29T03:51:30;99374.81;;;2.07;64.22
72428;BME280;60419;48.880;18.036;2022-12-29T03:54:16;99375.53;;;2.53;63.00
72428;BME280;60419;48.880;18.036;2022-12-29T03:57:01;99358.88;;;2.63;62.86
72428;BME280;60419;48.880;18.036;2022-12-29T03:59:46;99365.50;;;1.47;64.32
72428;BME280;60419;48.880;18.036;2022-12-29T04:02:31;99360.84;;;1.26;65.34
72428;BME280;60419;48.880;18.036;2022-12-29T04:05:17;99359.97;;;1.37;64.58
72428;BME280;60419;48.880;18.036;2022-12-29T04:08:02;99315.56;;;1.37;64.49
72428;BME280;60419;48.880;18.036;2022-12-29T04:10:48;99357.66;;;1.69;64.58
72428;BME280;60419;48.880;18.036;2022-12-29T04:13:34;99357.66;;;1.69;64.33
72428;BME280;60419;48.880;18.036;2022-12-29T04:16:19;99350.88;;;1.78;64.77
72428;BME280;60419;48.880;18.036;2022-12-29T04:19:05;99352.47;;;2.08;63.69
72428;BME280;60419;48.880;18.036;2022-12-29T04:21:51;99355.53;;;2.00;64.36
72428;BME280;60419;48.880;18.036;2022-12-29T04:24:36;99343.25;;;2.16;63.51
72428;BME280;60419;48.880;18.036;2022-12-29T04:27:22;99342.41;;;2.49;62.86
72428;BME280;60419;48.880;18.036;2022-12-29T04:30:07;99333.31;;;2.67;62.08
72428;BME280;60419;48.880;18.036;2022-12-29T04:32:53;99330.41;;;2.68;62.20
72428;BME280;60419;48.880;18.036;2022-12-29T04:35:39;99336.03;;;2.50;61.99
72428;BME280;60419;48.880;18.036;2022-12-29T04:38:25;99342.75;;;2.02;63.79
72428;BME280;60419;48.880;18.036;2022-12-29T04:41:10;99345.06;;;1.81;64.15
72428;BME280;60419;48.880;18.036;2022-12-29T04:43:55;99351.63;;;1.91;64.17
72428;BME280;60419;48.880;18.036;2022-12-29T04:46:41;99343.78;;;1.84;63.91
72428;BME280;60419;48.880;18.036;2022-12-29T04:49:26;99344.66;;;1.56;64.05
72428;BME280;60419;48.880;18.036;2022-12-29T04:52:11;99330.00;;;1.41;64.55
72428;BME280;60419;48.880;18.036;2022-12-29T04:54:57;99342.53;;;1.58;64.25
72428;BME280;60419;48.880;18.036;2022-12-29T04:57:42;99341.50;;;1.59;64.62
72428;BME280;60419;48.880;18.036;2022-12-29T05:00:27;99352.47;;;2.08;63.18
72428;BME280;60419;48.880;18.036;2022-12-29T05:03:13;99341.97;;;2.18;62.63
72428;BME280;60419;48.880;18.036;2022-12-29T05:05:58;99343.28;;;1.53;64.68
72428;BME280;60419;48.880;18.036;2022-12-29T05:08:43;99335.22;;;1.65;64.74
72428;BME280;60419;48.880;18.036;2022-12-29T05:11:29;99346.94;;;1.81;64.25
72428;BME280;60419;48.880;18.036;2022-12-29T05:14:14;99353.81;;;1.94;64.09
72428;BME280;60419;48.880;18.036;2022-12-29T05:16:59;99333.31;;;2.11;63.46
72428;BME280;60419;48.880;18.036;2022-12-29T05:19:45;99347.75;;;2.15;63.23
72428;BME280;60419;48.880;18.036;2022-12-29T05:22:30;99345.34;;;1.51;64.76
72428;BME280;60419;48.880;18.036;2022-12-29T05:25:15;99351.19;;;2.11;64.34
72428;BME280;60419;48.880;18.036;2022-12-29T05:28:01;99328.22;;;2.10;63.69
72428;BME280;60419;48.880;18.036;2022-12-29T05:30:50;99344.53;;;2.30;63.04
72428;BME280;60419;48.880;18.036;2022-12-29T05:33:35;99354.75;;;1.71;65.06
72428;BME280;60419;48.880;18.036;2022-12-29T05:36:21;99358.97;;;0.86;67.51
72428;BME280;60419;48.880;18.036;2022-12-29T05:39:06;99361.63;;;1.38;67.01
72428;BME280;60419;48.880;18.036;2022-12-29T05:41:52;99352.06;;;1.25;66.69
72428;BME280;60419;48.880;18.036;2022-12-29T05:44:38;99353.38;;;1.68;65.96
72428;BME280;60419;48.880;18.036;2022-12-29T05:47:23;99343.09;;;2.22;64.72
72428;BME280;60419;48.880;18.036;2022-12-29T05:50:08;99345.91;;;1.99;65.09
72428;BME280;60419;48.880;18.036;2022-12-29T05:52:54;99350.38;;;1.48;67.62
72428;BME280;60419;48.880;18.036;2022-12-29T05:55:39;99349.00;;;1.62;66.79
72428;BME280;60419;48.880;18.036;2022-12-29T05:58:24;99355.56;;;1.71;66.74
72428;BME280;60419;48.880;18.036;2022-12-29T06:01:10;99346.63;;;2.28;65.47
72428;BME280;60419;48.880;18.036;2022-12-29T06:03:55;99346.03;;;2.60;64.48
72428;BME280;60419;48.880;18.036;2022-12-29T06:06:40;99339.13;;;2.81;63.65
72428;BME280;60419;48.880;18.036;2022-12-29T06:09:26;99334.41;;;3.10;62.75
72428;BME280;60419;48.880;18.036;2022-12-29T06:12:12;99342.13;;;3.82;75.21
72428;BME280;60419;48.880;18.036;2022-12-29T06:14:57;99341.25;;;3.50;64.73
72428;BME280;60419;48.880;18.036;2022-12-29T06:17:43;99326.06;;;3.55;63.30
72428;BME280;60419;48.880;18.036;2022-12-29T06:20:28;99323.50;;;3.66;62.04
72428;BME280;60419;48.880;18.036;2022-12-29T06:23:14;99333.53;;;3.26;62.26
72428;BME280;60419;48.880;18.036;2022-12-29T06:26:00;99340.25;;;3.07;62.70
72428;BME280;60419;48.880;18.036;2022-12-29T06:28:45;99322.75;;;2.94;62.66
72428;BME280;60419;48.880;18.036;2022-12-29T06:31:31;99323.47;;;3.11;62.61
72428;BME280;60419;48.880;18.036;2022-12-29T06:34:16;99337.00;;;3.27;62.32
72428;BME280;60419;48.880;18.036;2022-12-29T06:37:02;99313.22;;;3.25;61.71
72428;BME280;60419;48.880;18.036;2022-12-29T06:39:47;99333.88;;;2.91;63.38
72428;BME280;60419;48.880;18.036;2022-12-29T06:42:33;99337.38;;;3.13;63.06
72428;BME280;60419;48.880;18.036;2022-12-29T06:45:18;99333.16;;;1.27;68.70
72428;BME280;60419;48.880;18.036;2022-12-29T06:48:03;99326.28;;;2.22;67.06
72428;BME280;60419;48.880;18.036;2022-12-29T06:50:49;99327.25;;;2.33;66.91
72428;BME280;60419;48.880;18.036;2022-12-29T06:53:34;99324.16;;;2.80;65.44
72428;BME280;60419;48.880;18.036;2022-12-29T06:56:19;99334.53;;;3.20;63.92
72428;BME280;60419;48.880;18.036;2022-12-29T06:59:04;99338.31;;;3.24;63.65
72428;BME280;60419;48.880;18.036;2022-12-29T07:01:50;99330.69;;;2.89;64.03
72428;BME280;60419;48.880;18.036;2022-12-29T07:04:36;99339.50;;;2.89;63.55
72428;BME280;60419;48.880;18.036;2022-12-29T07:07:21;99348.03;;;2.69;64.74
72428;BME280;60419;48.880;18.036;2022-12-29T07:10:07;99345.78;;;2.61;64.76
72428;BME280;60419;48.880;18.036;2022-12-29T07:12:52;99336.63;;;1.84;66.14
72428;BME280;60419;48.880;18.036;2022-12-29T07:15:37;99353.34;;;2.47;73.32
72428;BME280;60419;48.880;18.036;2022-12-29T07:18:23;99361.88;;;2.88;68.38
72428;BME280;60419;48.880;18.036;2022-12-29T07:21:10;99361.41;;;3.13;64.58
72428;BME280;60419;48.880;18.036;2022-12-29T07:23:55;99366.41;;;2.49;65.08
72428;BME280;60419;48.880;18.036;2022-12-29T07:26:41;99357.19;;;2.57;65.52
72428;BME280;60419;48.880;18.036;2022-12-29T07:29:26;99346.69;;;2.89;64.30
72428;BME280;60419;48.880;18.036;2022-12-29T07:32:12;99357.31;;;2.84;64.44
72428;BME280;60419;48.880;18.036;2022-12-29T07:34:57;99363.09;;;2.59;64.79
72428;BME280;60419;48.880;18.036;2022-12-29T07:37:42;99351.81;;;2.01;66.38
72428;BME280;60419;48.880;18.036;2022-12-29T07:40:28;99361.75;;;2.22;66.06
72428;BME280;60419;48.880;18.036;2022-12-29T07:43:13;99356.97;;;2.24;64.94
72428;BME280;60419;48.880;18.036;2022-12-29T07:45:58;99362.63;;;2.28;65.81
72428;BME280;60419;48.880;18.036;2022-12-29T07:48:44;99353.47;;;2.58;64.47
72428;BME280;60419;48.880;18.036;2022-12-29T07:51:29;99358.69;;;2.69;64.14
72428;BME280;60419;48.880;18.036;2022-12-29T07:54:14;99354.13;;;2.31;64.94
72428;BME280;60419;48.880;18.036;2022-12-29T07:57:03;99349.72;;;2.37;65.01
72428;BME280;60419;48.880;18.036;2022-12-29T07:59:49;99356.41;;;2.22;65.37
72428;BME280;60419;48.880;18.036;2022-12-29T08:02:35;99354.31;;;1.91;66.71
72428;BME280;60419;48.880;18.036;2022-12-29T08:05:20;99345.09;;;2.15;66.03
72428;BME280;60419;48.880;18.036;2022-12-29T08:08:06;99350.44;;;2.15;65.69
72428;BME280;60419;48.880;18.036;2022-12-29T08:10:51;99356.97;;;2.24;65.68
72428;BME280;60419;48.880;18.036;2022-12-29T08:13:36;99352.78;;;2.12;65.87
72428;BME280;60419;48.880;18.036;2022-12-29T08:16:22;99365.47;;;2.21;66.18
72428;BME280;60419;48.880;18.036;2022-12-29T08:19:10;99365.66;;;2.70;64.91
72428;BME280;60419;48.880;18.036;2022-12-29T08:21:56;99369.28;;;3.03;63.73
72428;BME280;60419;48.880;18.036;2022-12-29T08:24:41;99363.22;;;2.69;64.72
72428;BME280;60419;48.880;18.036;2022-12-29T08:27:27;99362.28;;;2.97;64.18
72428;BME280;60419;48.880;18.036;2022-12-29T08:30:12;99358.38;;;3.05;64.00
72428;BME280;60419;48.880;18.036;2022-12-29T08:32:58;99374.44;;;3.10;63.19
72428;BME280;60419;48.880;18.036;2022-12-29T08:35:43;99371.91;;;3.20;63.43
72428;BME280;60419;48.880;18.036;2022-12-29T08:38:28;99359.53;;;3.36;64.11
72428;BME280;60419;48.880;18.036;2022-12-29T08:41:14;99374.03;;;3.45;63.30
72428;BME280;60419;48.880;18.036;2022-12-29T08:43:59;99368.53;;;3.52;63.42
72428;BME280;60419;48.880;18.036;2022-12-29T08:46:44;99355.66;;;3.76;62.49
72428;BME280;60419;48.880;18.036;2022-12-29T08:49:30;99360.66;;;3.94;62.45
72428;BME280;60419;48.880;18.036;2022-12-29T08:52:15;99355.97;;;3.79;62.96
72428;BME280;60419;48.880;18.036;2022-12-29T08:55:01;99363.50;;;3.82;62.79
72428;BME280;60419;48.880;18.036;2022-12-29T08:57:46;99364.38;;;4.25;62.21
72428;BME280;60419;48.880;18.036;2022-12-29T09:00:31;99369.91;;;4.14;63.32
72428;BME280;60419;48.880;18.036;2022-12-29T09:03:17;99362.81;;;3.97;62.93
72428;BME280;60419;48.880;18.036;2022-12-29T09:06:02;99366.22;;;3.88;63.10
72428;BME280;60419;48.880;18.036;2022-12-29T09:08:48;99371.88;;;3.64;64.17
72428;BME280;60419;48.880;18.036;2022-12-29T09:11:33;99368.16;;;3.97;63.72
72428;BME280;60419;48.880;18.036;2022-12-29T09:14:18;99345.38;;;4.64;61.93
72428;BME280;60419;48.880;18.036;2022-12-29T09:17:04;99349.38;;;5.09;60.32
72428;BME280;60419;48.880;18.036;2022-12-29T09:20:13;99353.69;;;4.25;61.85
72428;BME280;60419;48.880;18.036;2022-12-29T09:22:59;99370.09;;;4.77;61.65
72428;BME280;60419;48.880;18.036;2022-12-29T09:25:44;99362.28;;;4.70;61.92
72428;BME280;60419;48.880;18.036;2022-12-29T09:28:30;99360.16;;;5.25;60.19
72428;BME280;60419;48.880;18.036;2022-12-29T09:31:16;99357.97;;;5.11;61.48
72428;BME280;60419;48.880;18.036;2022-12-29T09:34:01;99348.53;;;4.99;61.27
72428;BME280;60419;48.880;18.036;2022-12-29T09:36:46;99349.31;;;4.94;61.25
72428;BME280;60419;48.880;18.036;2022-12-29T09:39:31;99348.41;;;5.26;61.55
72428;BME280;60419;48.880;18.036;2022-12-29T09:42:39;99337.25;;;5.80;59.76
72428;BME280;60419;48.880;18.036;2022-12-29T09:45:30;99331.22;;;5.17;60.79
72428;BME280;60419;48.880;18.036;2022-12-29T09:48:20;99340.16;;;5.53;60.72
72428;BME280;60419;48.880;18.036;2022-12-29T09:51:11;99341.03;;;4.96;61.71
72428;BME280;60419;48.880;18.036;2022-12-29T09:54:03;99324.31;;;4.78;62.22
72428;BME280;60419;48.880;18.036;2022-12-29T09:56:53;99333.94;;;5.37;60.77
72428;BME280;60419;48.880;18.036;2022-12-29T09:59:41;99326.09;;;4.62;62.49
72428;BME280;60419;48.880;18.036;2022-12-29T10:02:32;99324.31;;;4.31;63.52
72428;BME280;60419;48.880;18.036;2022-12-29T10:05:35;99311.44;;;4.70;62.56
72428;BME280;60419;48.880;18.036;2022-12-29T10:15:16;99307.47;;;4.83;63.00
72428;BME280;60419;48.880;18.036;2022-12-29T10:18:25;99299.19;;;4.84;62.16
72428;BME280;60419;48.880;18.036;2022-12-29T10:24:24;99291.91;;;5.48;61.42
72428;BME280;60419;48.880;18.036;2022-12-29T10:27:12;99275.31;;;5.66;60.46
72428;BME280;60419;48.880;18.036;2022-12-29T10:30:00;99266.97;;;5.37;60.61
72428;BME280;60419;48.880;18.036;2022-12-29T10:32:52;99286.50;;;5.27;61.77
72428;BME280;60419;48.880;18.036;2022-12-29T10:35:39;99286.50;;;5.27;62.82
72428;BME280;60419;48.880;18.036;2022-12-29T10:38:30;99281.69;;;5.24;61.89
72428;BME280;60419;48.880;18.036;2022-12-29T10:41:28;99290.59;;;4.77;63.55
72428;BME280;60419;48.880;18.036;2022-12-29T10:44:18;99289.75;;;4.66;64.63
72428;BME280;60419;48.880;18.036;2022-12-29T10:47:13;99274.56;;;4.82;64.09
72428;BME280;60419;48.880;18.036;2022-12-29T10:50:00;99295.19;;;7.91;86.19
72428;BME280;60419;48.880;18.036;2022-12-29T10:52:47;99275.03;;;7.88;59.67
72428;BME280;60419;48.880;18.036;2022-12-29T10:55:38;99290.81;;;7.21;57.74
72428;BME280;60419;48.880;18.036;2022-12-29T10:58:27;99290.22;;;6.64;59.14
72428;BME280;60419;48.880;18.036;2022-12-29T11:01:14;99297.50;;;6.54;59.29
72428;BME280;60419;48.880;18.036;2022-12-29T11:04:07;99297.56;;;6.08;60.63
72428;BME280;60419;48.880;18.036;2022-12-29T11:06:55;99293.53;;;6.31;60.52
72428;BME280;60419;48.880;18.036;2022-12-29T11:09:43;99294.06;;;5.51;62.39
72428;BME280;60419;48.880;18.036;2022-12-29T11:12:29;99286.56;;;5.53;62.29
72428;BME280;60419;48.880;18.036;2022-12-29T11:15:15;99277.69;;;5.37;63.67
72428;BME280;60419;48.880;18.036;2022-12-29T11:18:01;99282.19;;;5.11;63.59
72428;BME280;60419;48.880;18.036;2022-12-29T11:20:47;99290.59;;;5.66;62.39
72428;BME280;60419;48.880;18.036;2022-12-29T11:23:35;99275.03;;;5.52;62.65
72428;BME280;60419;48.880;18.036;2022-12-29T11:26:23;99285.72;;;6.39;61.63
72428;BME280;60419;48.880;18.036;2022-12-29T11:29:21;99276.88;;;6.44;59.36
72428;BME280;60419;48.880;18.036;2022-12-29T11:32:22;99271.28;;;6.20;61.28
72428;BME280;60419;48.880;18.036;2022-12-29T11:35:40;99273.19;;;5.68;61.41
72428;BME280;60419;48.880;18.036;2022-12-29T11:38:34;99268.34;;;5.65;62.28
72428;BME280;60419;48.880;18.036;2022-12-29T11:41:30;99266.19;;;5.47;62.62
72428;BME280;60419;48.880;18.036;2022-12-29T11:44:17;99264.84;;;5.70;62.41
72428;BME280;60419;48.880;18.036;2022-12-29T11:47:02;99256.28;;;5.98;61.50
72428;BME280;60419;48.880;18.036;2022-12-29T11:49:53;99251.72;;;6.04;61.98
72428;BME280;60419;48.880;18.036;2022-12-29T11:52:39;99250.06;;;6.34;61.33
72428;BME280;60419;48.880;18.036;2022-12-29T11:55:25;99250.88;;;6.29;61.07
72428;BME280;60419;48.880;18.036;2022-12-29T11:58:14;99235.91;;;5.72;61.39
72428;BME280;60419;48.880;18.036;2022-12-29T12:04:15;99235.13;;;5.82;61.17
72428;BME280;60419;48.880;18.036;2022-12-29T12:07:13;99236.72;;;5.42;62.85
72428;BME280;60419;48.880;18.036;2022-12-29T12:10:03;99240.47;;;5.51;63.18
72428;BME280;60419;48.880;18.036;2022-12-29T12:12:55;99235.13;;;5.76;62.79
72428;BME280;60419;48.880;18.036;2022-12-29T12:15:50;99232.41;;;6.02;62.26
72428;BME280;60419;48.880;18.036;2022-12-29T12:18:44;99224.91;;;6.04;62.08
72428;BME280;60419;48.880;18.036;2022-12-29T12:21:37;99232.09;;;6.29;61.55
72428;BME280;60419;48.880;18.036;2022-12-29T12:24:29;99227.47;;;6.45;61.11
72428;BME280;60419;48.880;18.036;2022-12-29T12:27:22;99216.31;;;6.07;61.55
72428;BME280;60419;48.880;18.036;2022-12-29T12:30:22;99218.50;;;5.85;62.90
72428;BME280;60419;48.880;18.036;2022-12-29T12:39:47;99210.66;;;6.19;61.45
72428;BME280;60419;48.880;18.036;2022-12-29T12:55:41;99193.72;;;6.29;61.34
72428;BME280;60419;48.880;18.036;2022-12-29T13:04:52;99197.56;;;5.92;62.03
72428;BME280;60419;48.880;18.036;2022-12-29T13:07:54;99192.75;;;5.84;62.48
72428;BME280;60419;48.880;18.036;2022-12-29T13:10:55;99190.91;;;5.64;62.57
72428;BME280;60419;48.880;18.036;2022-12-29T13:22:43;99201.75;;;7.38;70.04
72428;BME280;60419;48.880;18.036;2022-12-29T13:28:25;99201.41;;;6.56;60.30
72428;BME280;60419;48.880;18.036;2022-12-29T13:34:40;99168.66;;;5.68;64.19
72428;BME280;60419;48.880;18.036;2022-12-29T13:37:34;99200.78;;;5.27;65.42
72428;BME280;60419;48.880;18.036;2022-12-29T13:40:24;99191.16;;;5.72;64.03
72428;BME280;60419;48.880;18.036;2022-12-29T13:43:13;99189.16;;;6.34;63.08
72428;BME280;60419;48.880;18.036;2022-12-29T13:46:08;99182.34;;;6.57;62.07
72428;BME280;60419;48.880;18.036;2022-12-29T13:49:08;99177.28;;;7.00;60.08
72428;BME280;60419;48.880;18.036;2022-12-29T13:52:01;99187.03;;;6.21;62.23
72428;BME280;60419;48.880;18.036;2022-12-29T13:55:18;99185.22;;;6.01;63.23
72428;BME280;60419;48.880;18.036;2022-12-29T13:58:30;99195.69;;;6.73;61.31
72428;BME280;60419;48.880;18.036;2022-12-29T14:01:45;99195.38;;;6.14;62.12
72428;BME280;60419;48.880;18.036;2022-12-29T14:04:31;99180.13;;;5.94;63.81
72428;BME280;60419;48.880;18.036;2022-12-29T14:07:20;99188.06;;;6.40;62.38
72428;BME280;60419;48.880;18.036;2022-12-29T14:10:05;99196.50;;;5.77;63.88
72428;BME280;60419;48.880;18.036;2022-12-29T14:12:51;99211.00;;;5.51;65.72
72428;BME280;60419;48.880;18.036;2022-12-29T14:15:53;99206.72;;;5.81;64.17
72428;BME280;60419;48.880;18.036;2022-12-29T14:18:43;99203.50;;;5.84;64.84
72428;BME280;60419;48.880;18.036;2022-12-29T14:21:29;99200.69;;;6.30;63.14
72428;BME280;60419;48.880;18.036;2022-12-29T14:30:46;99200.03;;;5.47;65.36
72428;BME280;60419;48.880;18.036;2022-12-29T14:33:33;99209.41;;;5.70;64.26
72428;BME280;60419;48.880;18.036;2022-12-29T14:36:22;99205.38;;;5.42;65.14
72428;BME280;60419;48.880;18.036;2022-12-29T14:39:39;99212.31;;;5.33;65.03
72428;BME280;60419;48.880;18.036;2022-12-29T14:42:25;99200.50;;;6.00;63.34
72428;BME280;60419;48.880;18.036;2022-12-29T14:47:58;99217.69;;;5.99;63.13
72428;BME280;60419;48.880;18.036;2022-12-29T14:50:46;99205.81;;;6.21;62.70
72428;BME280;60419;48.880;18.036;2022-12-29T14:53:46;99212.31;;;5.94;63.22
72428;BME280;60419;48.880;18.036;2022-12-29T14:56:39;99213.59;;;4.95;66.93
72428;BME280;60419;48.880;18.036;2022-12-29T14:59:25;99212.63;;;5.47;64.86
72428;BME280;60419;48.880;18.036;2022-12-29T15:02:16;99215.00;;;5.84;63.41
72428;BME280;60419;48.880;18.036;2022-12-29T15:05:05;99205.88;;;5.85;63.66
72428;BME280;60419;48.880;18.036;2022-12-29T15:07:53;99194.91;;;5.76;63.23
72428;BME280;60419;48.880;18.036;2022-12-29T15:13:39;99223.25;;;6.29;62.29
72428;BME280;60419;48.880;18.036;2022-12-29T15:16:29;99232.97;;;5.68;63.35
72428;BME280;60419;48.880;18.036;2022-12-29T15:19:23;99215.25;;;6.03;62.92
72428;BME280;60419;48.880;18.036;2022-12-29T15:22:08;99223.84;;;5.69;63.16
72428;BME280;60419;48.880;18.036;2022-12-29T15:24:55;99229.75;;;5.71;62.88
72428;BME280;60419;48.880;18.036;2022-12-29T15:27:41;99234.03;;;5.88;63.05
72428;BME280;60419;48.880;18.036;2022-12-29T15:30:28;99227.03;;;5.05;65.77
72428;BME280;60419;48.880;18.036;2022-12-29T15:33:22;99244.69;;;5.11;65.34
72428;BME280;60419;48.880;18.036;2022-12-29T15:36:27;99237.25;;;5.49;64.38
72428;BME280;60419;48.880;18.036;2022-12-29T15:39:30;99222.22;;;6.04;69.49
72428;BME280;60419;48.880;18.036;2022-12-29T15:42:45;99246.38;;;6.04;67.37
72428;BME280;60419;48.880;18.036;2022-12-29T15:45:33;99252.41;;;6.51;71.82
72428;BME280;60419;48.880;18.036;2022-12-29T15:48:24;99238.06;;;5.75;62.84
72428;BME280;60419;48.880;18.036;2022-12-29T15:51:19;99249.53;;;5.24;64.45
72428;BME280;60419;48.880;18.036;2022-12-29T15:54:14;99224.34;;;5.00;64.95
72428;BME280;60419;48.880;18.036;2022-12-29T15:57:00;99242.91;;;5.73;64.41
72428;BME280;60419;48.880;18.036;2022-12-29T15:59:46;99243.13;;;5.35;63.83
72428;BME280;60419;48.880;18.036;2022-12-29T16:02:34;99241.56;;;5.86;63.18
72428;BME280;60419;48.880;18.036;2022-12-29T16:05:19;99239.91;;;6.05;61.99
72428;BME280;60419;48.880;18.036;2022-12-29T16:08:32;99232.97;;;5.94;61.80
72428;BME280;60419;48.880;18.036;2022-12-29T16:11:22;99236.16;;;5.29;64.84
72428;BME280;60419;48.880;18.036;2022-12-29T16:14:28;99230.53;;;5.16;65.12
72428;BME280;60419;48.880;18.036;2022-12-29T16:17:16;99224.63;;;5.19;64.29
72428;BME280;60419;48.880;18.036;2022-12-29T16:20:18;99221.47;;;4.59;66.88
72428;BME280;60419;48.880;18.036;2022-12-29T16:23:04;99229.31;;;4.81;67.35
72428;BME280;60419;48.880;18.036;2022-12-29T16:25:51;99231.03;;;5.18;65.41
72428;BME280;60419;48.880;18.036;2022-12-29T16:28:40;99226.81;;;5.57;64.70
72428;BME280;60419;48.880;18.036;2022-12-29T16:31:33;99239.13;;;5.43;64.23